Time,TemperatureF,DewpointF,PressureIn,WindDirection,WindDirectionDegrees,WindSpeedMPH,WindSpeedGustMPH,Humidity,HourlyPrecipIn,Conditions,Clouds,dailyrainin,SoftwareType,DateUTC
2013-02-10 00:00:00,6.6,-1.7,30.36,NNW,341,2.0,2.0,68,0.00,,,0.00,Wunderground v.1.15,2013-02-10 05:00:00,
2013-02-10 00:05:00,6.3,-2.0,30.36,NNW,331,2.0,2.0,68,0.00,,,0.00,Wunderground v.1.15,2013-02-10 05:05:00,
2013-02-10 00:10:00,6.1,-2.2,30.36,North,5,2.0,2.0,68,0.00,,,0.00,Wunderground v.1.15,2013-02-10 05:10:00,
2013-02-10 00:15:00,6.1,-2.2,30.36,West,270,1.0,6.0,68,0.00,,,0.00,Wunderground v.1.15,2013-02-10 05:15:00,
2013-02-10 00:20:00,6.3,-2.0,30.36,WNW,297,1.0,1.0,68,0.00,,,0.00,Wunderground v.1.15,2013-02-10 05:20:00,
2013-02-10 00:25:00,6.3,-2.0,30.36,NW,318,1.0,4.0,68,0.00,,,0.00,Wunderground v.1.15,2013-02-10 05:25:00,
2013-02-10 00:35:00,6.4,-1.9,30.36,NNW,343,2.0,2.0,68,0.00,,,0.00,Wunderground v.1.15,2013-02-10 05:35:00,
2013-02-10 00:40:00,6.5,-2.1,30.36,North,349,3.0,3.0,67,0.00,,,0.00,Wunderground v.1.15,2013-02-10 05:40:00,
2013-02-10 00:50:00,6.2,-2.1,30.36,North,5,3.0,3.0,68,0.00,,,0.00,Wunderground v.1.15,2013-02-10 05:50:00,
2013-02-10 00:55:00,5.7,-2.6,30.36,North,355,2.0,2.0,68,0.00,,,0.00,Wunderground v.1.15,2013-02-10 05:55:00,
2013-02-10 01:00:00,5.3,-2.7,30.37,North,349,2.0,3.0,69,0.00,,,0.00,Wunderground v.1.15,2013-02-10 06:00:00,
2013-02-10 01:05:00,5.0,-3.0,30.37,NNW,344,2.0,3.0,69,0.00,,,0.00,Wunderground v.1.15,2013-02-10 06:05:00,
2013-02-10 01:10:00,4.7,-2.9,30.37,NNW,346,2.0,2.0,70,0.00,,,0.00,Wunderground v.1.15,2013-02-10 06:10:00,
2013-02-10 01:15:00,4.7,-2.9,30.37,NNW,338,1.0,2.0,70,0.00,,,0.00,Wunderground v.1.15,2013-02-10 06:15:00,
2013-02-10 01:25:00,4.7,-2.9,30.37,NNW,329,1.0,2.0,70,0.00,,,0.00,Wunderground v.1.15,2013-02-10 06:25:00,
2013-02-10 01:30:00,4.9,-2.7,30.37,NW,326,1.0,2.0,70,0.00,,,0.00,Wunderground v.1.15,2013-02-10 06:30:00,
2013-02-10 01:35:00,4.9,-2.7,30.37,NNW,329,1.0,2.0,70,0.00,,,0.00,Wunderground v.1.15,2013-02-10 06:35:00,
2013-02-10 01:40:00,4.7,-2.9,30.37,NW,309,1.0,2.0,70,0.00,,,0.00,Wunderground v.1.15,2013-02-10 06:40:00,
2013-02-10 01:45:00,4.9,-3.1,30.37,NW,316,1.0,1.0,69,0.00,,,0.00,Wunderground v.1.15,2013-02-10 06:45:00,
2013-02-10 01:50:00,5.0,-3.0,30.38,NW,313,1.0,1.0,69,0.00,,,0.00,Wunderground v.1.15,2013-02-10 06:50:00,
2013-02-10 02:00:00,4.0,-3.9,30.38,NW,313,0.0,0.0,69,0.00,,,0.00,Wunderground v.1.15,2013-02-10 07:00:00,
2013-02-10 02:05:00,3.3,-4.3,30.38,NW,313,0.0,2.0,70,0.00,,,0.00,Wunderground v.1.15,2013-02-10 07:05:00,
2013-02-10 02:10:00,2.6,-5.0,30.38,NW,313,0.0,0.0,70,0.00,,,0.00,Wunderground v.1.15,2013-02-10 07:10:00,
2013-02-10 02:15:00,2.2,-5.1,30.38,NW,314,1.0,1.0,71,0.00,,,0.00,Wunderground v.1.15,2013-02-10 07:15:00,
2013-02-10 02:30:00,0.3,-6.6,30.38,NW,314,0.0,0.0,72,0.00,,,0.00,Wunderground v.1.15,2013-02-10 07:30:00,
2013-02-10 02:35:00,-0.1,-6.4,30.38,NW,314,0.0,0.0,74,0.00,,,0.00,Wunderground v.1.15,2013-02-10 07:35:00,
2013-02-10 02:40:00,-0.4,-6.4,30.38,NW,314,0.0,0.0,75,0.00,,,0.00,Wunderground v.1.15,2013-02-10 07:40:00,
2013-02-10 02:45:00,-0.6,-6.4,30.38,NW,314,0.0,0.0,76,0.00,,,0.00,Wunderground v.1.15,2013-02-10 07:45:00,
2013-02-10 02:50:00,-0.9,-6.9,30.38,NW,314,0.0,0.0,75,0.00,,,0.00,Wunderground v.1.15,2013-02-10 07:50:00,
2013-02-10 02:55:00,-1.5,-7.5,30.38,NW,314,0.0,0.0,75,0.00,,,0.00,Wunderground v.1.15,2013-02-10 07:55:00,
2013-02-10 03:00:00,-2.1,-8.1,30.38,NW,314,0.0,1.0,75,0.00,,,0.00,Wunderground v.1.15,2013-02-10 08:00:00,
2013-02-10 03:05:00,-2.8,-8.8,30.38,NW,314,0.0,1.0,75,0.00,,,0.00,Wunderground v.1.15,2013-02-10 08:05:00,
2013-02-10 03:10:00,-3.4,-8.8,30.39,NW,314,0.0,0.0,77,0.00,,,0.00,Wunderground v.1.15,2013-02-10 08:10:00,
2013-02-10 03:20:00,-4.0,-9.1,30.39,NW,314,0.0,0.0,78,0.00,,,0.00,Wunderground v.1.15,2013-02-10 08:20:00,
2013-02-10 03:25:00,-4.1,-9.0,30.39,NW,314,0.0,0.0,79,0.00,,,0.00,Wunderground v.1.15,2013-02-10 08:25:00,
2013-02-10 03:30:00,-4.3,-9.2,30.39,NW,314,0.0,0.0,79,0.00,,,0.00,Wunderground v.1.15,2013-02-10 08:30:00,
2013-02-10 03:35:00,-4.4,-9.3,30.39,NW,314,0.0,0.0,79,0.00,,,0.00,Wunderground v.1.15,2013-02-10 08:35:00,
2013-02-10 03:40:00,-4.4,-9.0,30.39,NW,314,0.0,0.0,80,0.00,,,0.00,Wunderground v.1.15,2013-02-10 08:40:00,
2013-02-10 03:45:00,-4.4,-9.0,30.40,NW,314,0.0,0.0,80,0.00,,,0.00,Wunderground v.1.15,2013-02-10 08:45:00,
2013-02-10 03:50:00,-4.4,-9.0,30.40,NW,314,0.0,0.0,80,0.00,,,0.00,Wunderground v.1.15,2013-02-10 08:50:00,
2013-02-10 04:00:00,-4.5,-9.4,30.40,NW,314,0.0,0.0,79,0.00,,,0.00,Wunderground v.1.15,2013-02-10 09:00:00,
2013-02-10 04:05:00,-4.8,-9.7,30.40,NW,314,0.0,0.0,79,0.00,,,0.00,Wunderground v.1.15,2013-02-10 09:05:00,
2013-02-10 04:10:00,-4.9,-9.7,30.41,NW,314,0.0,0.0,79,0.00,,,0.00,Wunderground v.1.15,2013-02-10 09:10:00,
2013-02-10 04:15:00,-5.1,-9.9,30.40,NW,314,0.0,0.0,79,0.00,,,0.00,Wunderground v.1.15,2013-02-10 09:15:00,
2013-02-10 04:25:00,-5.3,-9.9,30.41,NW,314,0.0,0.0,80,0.00,,,0.00,Wunderground v.1.15,2013-02-10 09:25:00,
2013-02-10 04:35:00,-5.7,-10.5,30.42,NW,314,0.0,0.0,79,0.00,,,0.00,Wunderground v.1.15,2013-02-10 09:35:00,
2013-02-10 04:40:00,-5.9,-10.7,30.42,NW,314,0.0,0.0,79,0.00,,,0.00,Wunderground v.1.15,2013-02-10 09:40:00,
2013-02-10 04:50:00,-6.4,-11.2,30.42,NW,314,0.0,0.0,79,0.00,,,0.00,Wunderground v.1.15,2013-02-10 09:50:00,
2013-02-10 04:55:00,-6.6,-11.7,30.42,NW,314,0.0,0.0,78,0.00,,,0.00,Wunderground v.1.15,2013-02-10 09:55:00,
2013-02-10 05:05:00,-7.1,-12.2,30.42,NW,314,0.0,0.0,78,0.00,,,0.00,Wunderground v.1.15,2013-02-10 10:05:00,
2013-02-10 05:10:00,-7.3,-12.1,30.42,NW,314,0.0,0.0,79,0.00,,,0.00,Wunderground v.1.15,2013-02-10 10:10:00,
2013-02-10 05:15:00,-7.5,-12.5,30.43,NW,314,0.0,0.0,78,0.00,,,0.00,Wunderground v.1.15,2013-02-10 10:15:00,
2013-02-10 05:25:00,-7.8,-12.8,30.43,NW,314,0.0,0.0,78,0.00,,,0.00,Wunderground v.1.15,2013-02-10 10:25:00,
2013-02-10 05:30:00,-8.1,-12.9,30.43,NW,314,0.0,0.0,79,0.00,,,0.00,Wunderground v.1.15,2013-02-10 10:30:00,
2013-02-10 05:35:00,-8.2,-13.0,30.43,NW,314,0.0,0.0,79,0.00,,,0.00,Wunderground v.1.15,2013-02-10 10:35:00,
2013-02-10 05:45:00,-8.5,-10.9,30.44,NW,314,0.0,0.0,89,0.00,,,0.00,Wunderground v.1.15,2013-02-10 10:45:00,
2013-02-10 05:50:00,-8.7,-13.7,30.44,NW,314,0.0,0.0,78,0.00,,,0.00,Wunderground v.1.15,2013-02-10 10:50:00,
2013-02-10 05:55:00,-9.0,-14.0,30.44,NW,314,0.0,0.0,78,0.00,,,0.00,Wunderground v.1.15,2013-02-10 10:55:00,
2013-02-10 06:00:00,-8.9,-13.7,30.44,NW,314,0.0,0.0,79,0.00,,,0.00,Wunderground v.1.15,2013-02-10 11:00:00,
2013-02-10 06:05:00,-9.0,-14.0,30.44,NW,314,0.0,0.0,78,0.00,,,0.00,Wunderground v.1.15,2013-02-10 11:05:00,
2013-02-10 06:10:00,-9.4,-14.7,30.45,NW,314,0.0,0.0,77,0.00,,,0.00,Wunderground v.1.15,2013-02-10 11:10:00,
2013-02-10 06:15:00,-9.6,-14.6,30.45,NW,314,0.0,0.0,78,0.00,,,0.00,Wunderground v.1.15,2013-02-10 11:15:00,
2013-02-10 06:25:00,-9.9,-14.9,30.45,NW,314,0.0,0.0,78,0.00,,,0.00,Wunderground v.1.15,2013-02-10 11:25:00,
2013-02-10 06:30:00,-10.1,-15.1,30.46,NW,314,0.0,0.0,78,0.00,,,0.00,Wunderground v.1.15,2013-02-10 11:30:00,
2013-02-10 06:35:00,-10.3,-15.3,30.46,NW,314,0.0,0.0,78,0.00,,,0.00,Wunderground v.1.15,2013-02-10 11:35:00,
2013-02-10 06:45:00,-10.9,-15.6,30.46,NW,314,0.0,0.0,79,0.00,,,0.00,Wunderground v.1.15,2013-02-10 11:45:00,
2013-02-10 06:50:00,-11.0,-15.7,30.47,NW,314,0.0,0.0,79,0.00,,,0.00,Wunderground v.1.15,2013-02-10 11:50:00,
2013-02-10 06:55:00,-11.1,-15.8,30.47,NW,314,0.0,0.0,79,0.00,,,0.00,Wunderground v.1.15,2013-02-10 11:55:00,
2013-02-10 07:00:00,-11.1,-15.6,30.47,NW,314,0.0,0.0,80,0.00,,,0.00,Wunderground v.1.15,2013-02-10 12:00:00,
2013-02-10 07:05:00,-11.2,-15.9,30.47,NW,314,0.0,0.0,79,0.00,,,0.00,Wunderground v.1.15,2013-02-10 12:05:00,
2013-02-10 07:10:00,-11.1,-15.6,30.48,NW,314,0.0,0.0,80,0.00,,,0.00,Wunderground v.1.15,2013-02-10 12:10:00,
2013-02-10 07:15:00,-10.8,-15.3,30.48,NW,314,0.0,0.0,80,0.00,,,0.00,Wunderground v.1.15,2013-02-10 12:15:00,
2013-02-10 07:20:00,-10.7,-15.2,30.48,NW,314,0.0,0.0,80,0.00,,,0.00,Wunderground v.1.15,2013-02-10 12:20:00,
2013-02-10 07:25:00,-10.5,-15.0,30.49,NW,314,0.0,0.0,80,0.00,,,0.00,Wunderground v.1.15,2013-02-10 12:25:00,
2013-02-10 07:30:00,-10.0,-14.5,30.49,NW,314,0.0,0.0,80,0.00,,,0.00,Wunderground v.1.15,2013-02-10 12:30:00,
2013-02-10 07:35:00,-9.1,-13.4,30.49,NW,314,0.0,0.0,81,0.00,,,0.00,Wunderground v.1.15,2013-02-10 12:35:00,
2013-02-10 07:40:00,-8.4,-12.9,30.49,NW,314,0.0,0.0,80,0.00,,,0.00,Wunderground v.1.15,2013-02-10 12:40:00,
2013-02-10 07:45:00,-7.7,-12.2,30.50,NW,314,0.0,0.0,80,0.00,,,0.00,Wunderground v.1.15,2013-02-10 12:45:00,
2013-02-10 07:55:00,-5.5,-10.3,30.50,NW,314,0.0,0.0,79,0.00,,,0.00,Wunderground v.1.15,2013-02-10 12:55:00,
2013-02-10 08:00:00,-4.5,-9.4,30.50,NW,314,0.0,0.0,79,0.00,,,0.00,Wunderground v.1.15,2013-02-10 13:00:00,
2013-02-10 08:05:00,-3.2,-8.4,30.50,NW,314,0.0,0.0,78,0.00,,,0.00,Wunderground v.1.15,2013-02-10 13:05:00,
2013-02-10 08:10:00,-2.9,-8.3,30.51,NW,314,0.0,0.0,77,0.00,,,0.00,Wunderground v.1.15,2013-02-10 13:10:00,
2013-02-10 08:15:00,-2.3,-7.7,30.51,NW,314,0.0,1.0,77,0.00,,,0.00,Wunderground v.1.15,2013-02-10 13:15:00,
2013-02-10 08:25:00,-0.2,-5.7,30.51,NW,314,0.0,0.0,77,0.00,,,0.00,Wunderground v.1.15,2013-02-10 13:25:00,
2013-02-10 08:30:00,0.7,-5.1,30.51,NW,314,0.0,0.0,76,0.00,,,0.00,Wunderground v.1.15,2013-02-10 13:30:00,
2013-02-10 08:40:00,3.5,-2.7,30.50,NW,314,0.0,0.0,75,0.00,,,0.00,Wunderground v.1.15,2013-02-10 13:40:00,
2013-02-10 08:45:00,4.5,-2.3,30.50,NW,314,0.0,0.0,73,0.00,,,0.00,Wunderground v.1.15,2013-02-10 13:45:00,
2013-02-10 08:50:00,5.4,-1.7,30.50,NW,314,0.0,0.0,72,0.00,,,0.00,Wunderground v.1.15,2013-02-10 13:50:00,
2013-02-10 08:55:00,6.6,-0.5,30.50,NW,314,0.0,0.0,72,0.00,,,0.00,Wunderground v.1.15,2013-02-10 13:55:00,
2013-02-10 09:10:00,11.1,0.3,30.50,NW,315,1.0,1.0,61,0.00,,,0.00,Wunderground v.1.15,2013-02-10 14:10:00,
2013-02-10 09:15:00,12.1,0.1,30.50,NNW,344,2.0,4.0,58,0.00,,,0.00,Wunderground v.1.15,2013-02-10 14:15:00,
2013-02-10 09:25:00,13.4,-0.2,30.51,North,355,2.0,5.0,54,0.00,,,0.00,Wunderground v.1.15,2013-02-10 14:25:00,
2013-02-10 09:30:00,13.7,-0.3,30.51,NNW,342,3.0,5.0,53,0.00,,,0.00,Wunderground v.1.15,2013-02-10 14:30:00,
2013-02-10 09:40:00,14.3,-0.1,30.51,North,5,3.0,4.0,52,0.00,,,0.00,Wunderground v.1.15,2013-02-10 14:40:00,
2013-02-10 09:45:00,14.5,-0.4,30.50,NW,307,3.0,4.0,51,0.00,,,0.00,Wunderground v.1.15,2013-02-10 14:45:00,
2013-02-10 09:55:00,15.3,0.0,30.50,NNW,337,2.0,3.0,50,0.00,,,0.00,Wunderground v.1.15,2013-02-10 14:55:00,
2013-02-10 10:00:00,15.6,0.2,30.50,WNW,295,2.0,3.0,50,0.00,,,0.00,Wunderground v.1.15,2013-02-10 15:00:00,
2013-02-10 10:15:00,16.9,-0.3,30.50,NNE,13,1.0,2.0,46,0.00,,,0.00,Wunderground v.1.15,2013-02-10 15:15:00,
2013-02-10 10:20:00,17.5,-0.3,30.51,NW,319,2.0,2.0,45,0.00,,,0.00,Wunderground v.1.15,2013-02-10 15:20:00,
2013-02-10 10:25:00,17.8,0.9,30.50,SE,133,2.0,2.0,47,0.00,,,0.00,Wunderground v.1.15,2013-02-10 15:25:00,
2013-02-10 10:30:00,18.3,0.5,30.50,NW,317,1.0,2.0,45,0.00,,,0.00,Wunderground v.1.15,2013-02-10 15:30:00,
2013-02-10 10:35:00,18.6,0.7,30.50,ESE,105,2.0,5.0,45,0.00,,,0.00,Wunderground v.1.15,2013-02-10 15:35:00,
2013-02-10 10:40:00,18.6,1.7,30.50,ENE,77,2.0,5.0,47,0.00,,,0.00,Wunderground v.1.15,2013-02-10 15:40:00,
2013-02-10 10:45:00,18.5,1.6,30.50,ESE,106,2.0,4.0,47,0.00,,,0.00,Wunderground v.1.15,2013-02-10 15:45:00,
2013-02-10 10:50:00,17.8,1.4,30.50,ENE,75,2.0,4.0,48,0.00,,,0.00,Wunderground v.1.15,2013-02-10 15:50:00,
2013-02-10 10:55:00,18.4,2.0,30.50,East,96,1.0,2.0,48,0.00,,,0.00,Wunderground v.1.15,2013-02-10 15:55:00,
2013-02-10 11:00:00,18.6,2.6,30.50,ENE,59,1.0,1.0,49,0.00,,,0.00,Wunderground v.1.15,2013-02-10 16:00:00,
2013-02-10 11:10:00,19.1,2.1,30.50,NE,47,2.0,2.0,47,0.00,,,0.00,Wunderground v.1.15,2013-02-10 16:10:00,
2013-02-10 11:15:00,19.8,2.3,30.50,NE,47,1.0,2.0,46,0.00,,,0.00,Wunderground v.1.15,2013-02-10 16:15:00,
2013-02-10 11:25:00,20.8,0.2,30.49,West,277,2.0,5.0,40,0.00,,,0.00,Wunderground v.1.15,2013-02-10 16:25:00,
2013-02-10 11:30:00,21.4,-0.3,30.49,WNW,289,3.0,5.0,38,0.00,,,0.00,Wunderground v.1.15,2013-02-10 16:30:00,
2013-02-10 11:35:00,22.0,-0.9,30.48,NNW,340,3.0,5.0,36,0.00,,,0.00,Wunderground v.1.15,2013-02-10 16:35:00,
2013-02-10 11:40:00,22.4,0.0,30.48,North,351,3.0,5.0,37,0.00,,,0.00,Wunderground v.1.15,2013-02-10 16:40:00,
2013-02-10 11:45:00,22.7,-0.9,30.48,NW,325,3.0,5.0,35,0.00,,,0.00,Wunderground v.1.15,2013-02-10 16:45:00,
2013-02-10 11:50:00,22.7,-1.5,30.49,NNE,13,3.0,3.0,34,0.00,,,0.00,Wunderground v.1.15,2013-02-10 16:50:00,
2013-02-10 11:55:00,22.8,-1.4,30.48,WSW,238,3.0,4.0,34,0.00,,,0.00,Wunderground v.1.15,2013-02-10 16:55:00,
2013-02-10 12:00:00,22.7,-1.5,30.48,NW,311,3.0,3.0,34,0.00,,,0.00,Wunderground v.1.15,2013-02-10 17:00:00,
2013-02-10 12:05:00,23.1,1.8,30.48,West,272,2.0,3.0,39,0.00,,,0.00,Wunderground v.1.15,2013-02-10 17:05:00,
2013-02-10 12:10:00,23.3,3.0,30.48,NNE,24,1.0,1.0,41,0.00,,,0.00,Wunderground v.1.15,2013-02-10 17:10:00,
2013-02-10 12:15:00,22.9,2.1,30.47,SE,133,2.0,3.0,40,0.00,,,0.00,Wunderground v.1.15,2013-02-10 17:15:00,
2013-02-10 12:25:00,22.7,2.5,30.47,SE,142,2.0,2.0,41,0.00,,,0.00,Wunderground v.1.15,2013-02-10 17:25:00,
2013-02-10 12:30:00,23.0,1.1,30.47,NNW,347,2.0,2.0,38,0.00,,,0.00,Wunderground v.1.15,2013-02-10 17:30:00,
2013-02-10 12:35:00,23.9,0.8,30.47,NNE,30,2.0,2.0,36,0.00,,,0.00,Wunderground v.1.15,2013-02-10 17:35:00,
2013-02-10 12:40:00,24.2,-1.5,30.47,WSW,247,3.0,3.0,32,0.00,,,0.00,Wunderground v.1.15,2013-02-10 17:40:00,
2013-02-10 12:45:00,23.8,-0.5,30.46,WSW,238,4.0,4.0,34,0.00,,,0.00,Wunderground v.1.15,2013-02-10 17:45:00,
2013-02-10 12:50:00,23.9,-1.7,30.46,West,259,3.0,4.0,32,0.00,,,0.00,Wunderground v.1.15,2013-02-10 17:50:00,
2013-02-10 12:55:00,24.0,-1.6,30.46,WSW,257,3.0,3.0,32,0.00,,,0.00,Wunderground v.1.15,2013-02-10 17:55:00,
2013-02-10 13:00:00,24.4,-1.3,30.46,WSW,257,3.0,3.0,32,0.00,,,0.00,Wunderground v.1.15,2013-02-10 18:00:00,
2013-02-10 13:05:00,24.9,-0.8,30.45,WNW,282,3.0,3.0,32,0.00,,,0.00,Wunderground v.1.15,2013-02-10 18:05:00,
2013-02-10 13:10:00,25.2,-1.3,30.45,SW,216,3.0,3.0,31,0.00,,,0.00,Wunderground v.1.15,2013-02-10 18:10:00,
2013-02-10 13:15:00,25.2,-2.7,30.45,WSW,245,3.0,3.0,29,0.00,,,0.00,Wunderground v.1.15,2013-02-10 18:15:00,
2013-02-10 13:20:00,25.7,-1.5,30.44,NNW,327,3.0,3.0,30,0.00,,,0.00,Wunderground v.1.15,2013-02-10 18:20:00,
2013-02-10 13:25:00,26.2,-1.8,30.44,WSW,238,2.0,3.0,29,0.00,,,0.00,Wunderground v.1.15,2013-02-10 18:25:00,
2013-02-10 13:30:00,26.2,-1.8,30.44,NNW,329,2.0,4.0,29,0.00,,,0.00,Wunderground v.1.15,2013-02-10 18:30:00,
2013-02-10 13:35:00,26.3,-0.3,30.44,SW,218,2.0,4.0,31,0.00,,,0.00,Wunderground v.1.15,2013-02-10 18:35:00,
2013-02-10 13:40:00,26.6,-0.7,30.43,WNW,293,2.0,4.0,30,0.00,,,0.00,Wunderground v.1.15,2013-02-10 18:40:00,
2013-02-10 13:45:00,26.4,-0.2,30.43,NNW,344,2.0,4.0,31,0.00,,,0.00,Wunderground v.1.15,2013-02-10 18:45:00,
2013-02-10 13:50:00,26.6,0.0,30.43,NNE,15,2.0,2.0,31,0.00,,,0.00,Wunderground v.1.15,2013-02-10 18:50:00,
2013-02-10 14:00:00,26.5,-0.1,30.43,NNW,348,3.0,5.0,31,0.00,,,0.00,Wunderground v.1.15,2013-02-10 19:00:00,
2013-02-10 14:05:00,26.5,-0.1,30.43,NNW,333,3.0,5.0,31,0.00,,,0.00,Wunderground v.1.15,2013-02-10 19:05:00,
2013-02-10 14:10:00,27.1,0.4,30.42,NNW,331,1.0,1.0,31,0.00,,,0.00,Wunderground v.1.15,2013-02-10 19:10:00,
2013-02-10 14:15:00,27.6,2.2,30.42,NNW,333,1.0,1.0,33,0.00,,,0.00,Wunderground v.1.15,2013-02-10 19:15:00,
2013-02-10 14:25:00,28.0,1.2,30.42,NNW,346,1.0,1.0,31,0.00,,,0.00,Wunderground v.1.15,2013-02-10 19:25:00,
2013-02-10 14:30:00,28.1,0.6,30.42,NNW,346,1.0,1.0,30,0.00,,,0.00,Wunderground v.1.15,2013-02-10 19:30:00,
2013-02-10 14:35:00,28.1,0.6,30.42,NNW,346,1.0,1.0,30,0.00,,,0.00,Wunderground v.1.15,2013-02-10 19:35:00,
2013-02-10 14:40:00,28.2,0.7,30.42,NNW,346,1.0,3.0,30,0.00,,,0.00,Wunderground v.1.15,2013-02-10 19:40:00,
2013-02-10 14:45:00,27.9,0.4,30.42,NNW,346,1.0,1.0,30,0.00,,,0.00,Wunderground v.1.15,2013-02-10 19:45:00,
2013-02-10 14:50:00,28.1,2.6,30.42,NNW,346,1.0,1.0,33,0.00,,,0.00,Wunderground v.1.15,2013-02-10 19:50:00,
2013-02-10 14:55:00,28.8,4.5,30.42,ENE,59,1.0,1.0,35,0.00,,,0.00,Wunderground v.1.15,2013-02-10 19:55:00,
2013-02-10 15:00:00,28.9,2.7,30.42,ESE,115,1.0,3.0,32,0.00,,,0.00,Wunderground v.1.15,2013-02-10 20:00:00,
2013-02-10 15:05:00,27.9,1.8,30.42,ESE,119,2.0,3.0,32,0.00,,,0.00,Wunderground v.1.15,2013-02-10 20:05:00,
2013-02-10 15:10:00,27.1,2.4,30.42,ESE,111,4.0,4.0,34,0.00,,,0.00,Wunderground v.1.15,2013-02-10 20:10:00,
2013-02-10 15:15:00,26.9,2.8,30.43,ESE,105,4.0,4.0,35,0.00,,,0.00,Wunderground v.1.15,2013-02-10 20:15:00,
2013-02-10 15:20:00,26.8,2.8,30.43,ESE,107,3.0,3.0,35,0.00,,,0.00,Wunderground v.1.15,2013-02-10 20:20:00,
2013-02-10 15:25:00,26.9,4.1,30.43,ESE,116,3.0,3.0,37,0.00,,,0.00,Wunderground v.1.15,2013-02-10 20:25:00,
2013-02-10 15:30:00,27.2,3.7,30.43,East,94,3.0,3.0,36,0.00,,,0.00,Wunderground v.1.15,2013-02-10 20:30:00,
2013-02-10 15:35:00,27.0,3.5,30.43,East,94,2.0,3.0,36,0.00,,,0.00,Wunderground v.1.15,2013-02-10 20:35:00,
2013-02-10 15:40:00,26.9,5.2,30.43,NE,46,2.0,2.0,39,0.00,,,0.00,Wunderground v.1.15,2013-02-10 20:40:00,
2013-02-10 15:45:00,26.9,5.8,30.43,ENE,62,3.0,3.0,40,0.00,,,0.00,Wunderground v.1.15,2013-02-10 20:45:00,
2013-02-10 16:10:00,26.9,5.2,30.43,East,92,2.0,2.0,39,0.00,,,0.00,Wunderground v.1.15,2013-02-10 21:10:00,
2013-02-10 16:15:00,26.7,5.0,30.43,ENE,77,2.0,2.0,39,0.00,,,0.00,Wunderground v.1.15,2013-02-10 21:15:00,
2013-02-10 16:20:00,26.5,4.8,30.43,East,88,1.0,3.0,39,0.00,,,0.00,Wunderground v.1.15,2013-02-10 21:20:00,
2013-02-10 16:25:00,26.2,5.1,30.43,ESE,107,1.0,3.0,40,0.00,,,0.00,Wunderground v.1.15,2013-02-10 21:25:00,
2013-02-10 16:30:00,25.7,6.3,30.43,ESE,107,1.0,1.0,43,0.00,,,0.00,Wunderground v.1.15,2013-02-10 21:30:00,
2013-02-10 16:35:00,25.2,5.8,30.43,ESE,107,1.0,2.0,43,0.00,,,0.00,Wunderground v.1.15,2013-02-10 21:35:00,
2013-02-10 16:40:00,24.7,5.8,30.43,ESE,107,1.0,1.0,44,0.00,,,0.00,Wunderground v.1.15,2013-02-10 21:40:00,
2013-02-10 19:00:00,11.8,5.4,30.42,ESE,109,0.0,0.0,75,0.00,,,0.00,Wunderground v.1.15,2013-02-11 00:00:00,
2013-02-10 19:05:00,11.4,5.0,30.42,ESE,109,0.0,1.0,75,0.00,,,0.00,Wunderground v.1.15,2013-02-11 00:05:00,
2013-02-10 19:10:00,11.0,4.9,30.42,ESE,109,0.0,2.0,76,0.00,,,0.00,Wunderground v.1.15,2013-02-11 00:10:00,
2013-02-10 19:15:00,10.6,4.5,30.42,ESE,109,1.0,2.0,76,0.00,,,0.00,Wunderground v.1.15,2013-02-11 00:15:00,
2013-02-10 19:20:00,10.4,4.6,30.41,ESE,109,0.0,0.0,77,0.00,,,0.00,Wunderground v.1.15,2013-02-11 00:20:00,
2013-02-10 19:30:00,10.0,4.2,30.41,ESE,109,0.0,0.0,77,0.00,,,0.00,Wunderground v.1.15,2013-02-11 00:30:00,
2013-02-10 19:35:00,9.7,3.9,30.41,ESE,109,0.0,0.0,77,0.00,,,0.00,Wunderground v.1.15,2013-02-11 00:35:00,
2013-02-10 19:40:00,9.5,3.7,30.41,ESE,109,0.0,1.0,77,0.00,,,0.00,Wunderground v.1.15,2013-02-11 00:40:00,
2013-02-10 19:45:00,9.1,3.6,30.41,ESE,109,0.0,1.0,78,0.00,,,0.00,Wunderground v.1.15,2013-02-11 00:45:00,
2013-02-10 19:50:00,9.0,3.5,30.41,ESE,109,0.0,0.0,78,0.00,,,0.00,Wunderground v.1.15,2013-02-11 00:50:00,
2013-02-10 19:55:00,8.7,3.2,30.41,ESE,109,0.0,3.0,78,0.00,,,0.00,Wunderground v.1.15,2013-02-11 00:55:00,
2013-02-10 20:00:00,8.5,3.3,30.41,WSW,244,1.0,1.0,79,0.00,,,0.00,Wunderground v.1.15,2013-02-11 01:00:00,
2013-02-10 20:05:00,8.3,2.9,30.41,WSW,244,1.0,1.0,78,0.00,,,0.00,Wunderground v.1.15,2013-02-11 01:05:00,
2013-02-10 20:10:00,8.1,2.9,30.41,WSW,244,0.0,0.0,79,0.00,,,0.00,Wunderground v.1.15,2013-02-11 01:10:00,
2013-02-10 20:25:00,7.7,2.3,30.41,WSW,244,0.0,0.0,78,0.00,,,0.00,Wunderground v.1.15,2013-02-11 01:25:00,
2013-02-10 20:30:00,7.4,2.3,30.41,WSW,244,0.0,0.0,79,0.00,,,0.00,Wunderground v.1.15,2013-02-11 01:30:00,
2013-02-10 20:35:00,7.2,2.1,30.41,WSW,244,0.0,0.0,79,0.00,,,0.00,Wunderground v.1.15,2013-02-11 01:35:00,
2013-02-10 20:40:00,7.2,2.1,30.40,WSW,244,0.0,0.0,79,0.00,,,0.00,Wunderground v.1.15,2013-02-11 01:40:00,
2013-02-10 20:45:00,7.0,2.1,30.40,WSW,244,0.0,0.0,80,0.00,,,0.00,Wunderground v.1.15,2013-02-11 01:45:00,
2013-02-10 20:55:00,6.8,1.7,30.39,WSW,244,0.0,0.0,79,0.00,,,0.00,Wunderground v.1.15,2013-02-11 01:55:00,
2013-02-10 21:00:00,6.6,1.5,30.39,WSW,244,0.0,0.0,79,0.00,,,0.00,Wunderground v.1.15,2013-02-11 02:00:00,
2013-02-10 21:05:00,6.5,1.4,30.39,WSW,244,0.0,0.0,79,0.00,,,0.00,Wunderground v.1.15,2013-02-11 02:05:00,
2013-02-10 21:10:00,6.4,1.3,30.39,WSW,244,0.0,0.0,79,0.00,,,0.00,Wunderground v.1.15,2013-02-11 02:10:00,
2013-02-10 21:20:00,6.2,1.1,30.39,WSW,244,0.0,2.0,79,0.00,,,0.00,Wunderground v.1.15,2013-02-11 02:20:00,